Time;durP1;ratioP1;P1;durP2;ratioP2;P2;SDS_P1;SDS_P2;PMS_P1;PMS_P2;Temp;Humidity;BMP_temperature;BMP_pressure;BME280_temperature;BME280_humidity;BME280_pressure;Samples;Min_cycle;Max_cycle;Signal;HPM_P1;HPM_P2
2022/05/01 00:02:25;;;;;;;12.83;6.93;;;6.20;99.90;;;;;;5114902;28;20282;-84
2022/05/01 00:04:52;;;;;;;7.90;5.70;;;6.10;99.90;;;;;;5114969;28;20255;-84
2022/05/01 00:07:19;;;;;;;10.83;5.53;;;6.00;99.90;;;;;;5115104;28;20226;-84
2022/05/01 00:09:47;;;;;;;8.17;5.37;;;5.90;99.90;;;;;;5114975;28;20189;-84
2022/05/01 00:12:14;;;;;;;8.60;5.27;;;5.80;99.90;;;;;;5115114;28;20196;-85
2022/05/01 00:14:41;;;;;;;9.53;5.67;;;5.80;99.90;;;;;;5114766;28;20254;-85
2022/05/01 00:17:08;;;;;;;10.43;6.13;;;5.70;99.90;;;;;;5114905;28;20237;-84
2022/05/01 00:19:34;;;;;;;11.20;6.70;;;5.70;99.90;;;;;;5114972;28;20200;-84
2022/05/01 00:22:01;;;;;;;14.40;7.23;;;5.70;99.90;;;;;;5115004;28;20285;-84
2022/05/01 00:24:28;;;;;;;13.07;8.33;;;5.70;99.90;;;;;;5114780;28;20203;-84
2022/05/01 00:26:57;;;;;;;17.83;8.70;;;5.60;99.90;;;;;;5114417;28;20668;-85
2022/05/01 00:29:24;;;;;;;14.70;9.00;;;5.50;99.90;;;;;;5114022;28;20242;-85
2022/05/01 00:31:51;;;;;;;17.87;8.67;;;5.50;99.90;;;;;;5114351;28;20177;-84
2022/05/01 00:37:02;;;;;;;20.33;9.87;;;5.30;99.90;;;;;;5114180;28;20641;-85
2022/05/01 00:39:29;;;;;;;15.93;9.97;;;5.30;99.90;;;;;;5114510;28;20217;-85
2022/05/01 00:41:57;;;;;;;18.43;10.23;;;5.20;99.90;;;;;;5114092;28;20222;-85
2022/05/01 00:44:24;;;;;;;13.23;9.10;;;5.20;99.90;;;;;;5114640;27;20276;-84
2022/05/01 00:46:53;;;;;;;15.57;9.07;;;5.20;99.90;;;;;;5113567;28;20239;-84
2022/05/01 00:49:21;;;;;;;14.23;8.03;;;5.20;99.90;;;;;;5113666;28;20187;-84
2022/05/01 00:51:51;;;;;;;18.30;8.13;;;5.20;99.90;;;;;;5114481;27;20282;-85
2022/05/01 00:54:19;;;;;;;13.33;7.70;;;5.10;99.90;;;;;;5114218;28;20218;-84
2022/05/01 00:56:50;;;;;;;10.73;6.97;;;5.10;99.90;;;;;;5114042;28;20220;-84
2022/05/01 00:59:19;;;;;;;8.50;6.10;;;5.00;99.90;;;;;;5113844;28;20785;-84
2022/05/01 01:01:47;;;;;;;11.83;6.20;;;5.00;99.90;;;;;;5113766;28;20612;-84
2022/05/01 01:04:14;;;;;;;11.30;5.83;;;5.00;99.90;;;;;;5114184;28;20623;-85
2022/05/01 01:06:43;;;;;;;10.97;6.60;;;5.10;99.90;;;;;;5113900;28;20615;-85
2022/05/01 01:09:11;;;;;;;13.13;5.97;;;5.10;99.90;;;;;;5113702;28;20192;-83
2022/05/01 01:11:39;;;;;;;12.30;6.57;;;5.20;99.90;;;;;;5113845;28;20287;-84
2022/05/01 01:14:06;;;;;;;10.73;6.30;;;5.30;99.90;;;;;;5113765;28;20230;-84
2022/05/01 01:16:35;;;;;;;7.83;5.70;;;5.30;99.90;;;;;;5113464;28;20736;-85
2022/05/01 01:19:03;;;;;;;11.33;5.60;;;5.40;99.90;;;;;;5113478;28;20210;-86
2022/05/01 01:21:32;;;;;;;8.53;5.60;;;5.40;99.90;;;;;;5113933;28;20197;-83
2022/05/01 01:24:00;;;;;;;9.63;5.90;;;5.40;99.90;;;;;;5113848;28;20247;-85
2022/05/01 01:26:29;;;;;;;10.20;6.00;;;5.40;99.90;;;;;;5113678;28;20227;-86
2022/05/01 01:28:58;;;;;;;9.57;5.97;;;5.40;99.90;;;;;;5112986;28;20277;-84
2022/05/01 01:31:42;;;;;;;23.60;15.47;;;5.40;99.90;;;;;;5113754;28;20614;-86
2022/05/01 01:34:13;;;;;;;8.27;5.60;;;5.30;99.90;;;;;;5113589;28;20185;-84
2022/05/01 01:36:42;;;;;;;12.13;6.07;;;5.20;99.90;;;;;;5113170;28;20185;-86
2022/05/01 01:39:10;;;;;;;11.03;6.20;;;5.10;99.90;;;;;;5113491;28;20275;-84
2022/05/01 01:41:39;;;;;;;8.60;6.00;;;5.00;99.90;;;;;;5113479;28;20190;-84
2022/05/01 01:44:08;;;;;;;10.73;6.80;;;5.00;99.90;;;;;;5113000;28;20194;-84
2022/05/01 01:46:35;;;;;;;9.43;5.73;;;4.90;99.90;;;;;;5112750;28;20649;-84
2022/05/01 01:49:02;;;;;;;8.57;5.73;;;4.90;99.90;;;;;;5113255;28;20284;-84
2022/05/01 01:51:29;;;;;;;12.93;5.80;;;4.80;99.90;;;;;;5113173;28;20241;-86
2022/05/01 01:53:57;;;;;;;7.43;5.90;;;4.80;99.90;;;;;;5113284;28;20228;-84
2022/05/01 01:56:24;;;;;;;7.67;5.50;;;4.80;99.90;;;;;;5112812;28;20250;-85
2022/05/01 01:58:50;;;;;;;9.87;5.90;;;4.80;99.90;;;;;;5111890;28;20645;-86
2022/05/01 02:01:17;;;;;;;10.20;6.93;;;4.80;99.90;;;;;;5112988;28;20563;-86
2022/05/01 02:03:44;;;;;;;14.10;6.63;;;4.80;99.90;;;;;;5113065;28;20236;-84
2022/05/01 02:06:11;;;;;;;11.33;5.27;;;4.80;99.90;;;;;;5113028;28;20283;-84
2022/05/01 02:08:40;;;;;;;12.67;5.50;;;4.80;99.90;;;;;;5113048;28;20253;-84
2022/05/01 02:11:10;;;;;;;7.97;5.30;;;4.80;99.90;;;;;;5112431;28;20561;-85
2022/05/01 02:13:38;;;;;;;9.17;5.47;;;4.70;99.90;;;;;;5113111;28;20231;-85
2022/05/01 02:16:05;;;;;;;8.30;5.53;;;4.70;99.90;;;;;;5113247;28;20289;-85
2022/05/01 02:18:32;;;;;;;7.07;5.03;;;4.70;99.90;;;;;;5112558;28;20637;-86
2022/05/01 02:23:43;;;;;;;10.17;5.87;;;4.70;99.90;;;;;;5112743;28;20177;-86
2022/05/01 02:26:12;;;;;;;9.67;5.70;;;4.70;99.90;;;;;;5112955;28;20229;-86
2022/05/01 02:28:40;;;;;;;10.87;5.93;;;4.70;99.90;;;;;;5112282;28;20564;-85
2022/05/01 02:31:06;;;;;;;8.40;5.47;;;4.70;99.90;;;;;;5112896;28;20231;-87
2022/05/01 02:33:33;;;;;;;8.47;5.57;;;4.70;99.90;;;;;;5112370;28;20212;-84
2022/05/01 02:36:03;;;;;;;10.00;5.43;;;4.70;99.90;;;;;;5112706;28;20259;-85
2022/05/01 02:38:30;;;;;;;8.17;5.93;;;4.70;99.90;;;;;;5113391;28;20201;-85
2022/05/01 02:40:57;;;;;;;10.73;5.43;;;4.80;99.90;;;;;;5112910;28;20277;-86
2022/05/01 02:43:27;;;;;;;9.63;5.40;;;4.80;99.90;;;;;;5112694;28;20224;-87
2022/05/01 02:45:54;;;;;;;8.37;5.53;;;4.70;99.90;;;;;;5112605;28;20238;-87
2022/05/01 02:48:21;;;;;;;10.70;5.77;;;4.80;99.90;;;;;;5112914;28;20241;-87
2022/05/01 02:50:48;;;;;;;9.10;5.50;;;4.80;1.00;;;;;;5112832;28;20196;-87
2022/05/01 02:53:14;;;;;;;9.40;5.60;;;4.80;1.00;;;;;;5112211;28;20224;-86
2022/05/01 02:55:41;;;;;;;8.30;5.30;;;4.80;1.00;;;;;;5112698;28;21024;-87
2022/05/01 02:58:08;;;;;;;7.03;5.37;;;4.90;1.00;;;;;;5111984;28;20279;-87
2022/05/01 03:00:36;;;;;;;7.53;5.27;;;4.90;1.00;;;;;;5112600;28;20288;-86
2022/05/01 03:03:04;;;;;;;10.00;5.40;;;5.00;1.00;;;;;;5112302;28;20283;-86
2022/05/01 03:05:30;;;;;;;10.07;5.50;;;5.00;1.00;;;;;;5112497;28;20196;-87
2022/05/01 03:07:57;;;;;;;9.77;5.40;;;5.00;1.00;;;;;;5112593;28;20271;-86
2022/05/01 03:10:25;;;;;;;10.00;5.70;;;5.00;1.00;;;;;;5115835;28;20255;-86
2022/05/01 03:12:52;;;;;;;9.13;5.63;;;5.00;1.00;;;;;;5116477;28;20232;-86
2022/05/01 03:15:19;;;;;;;8.80;5.70;;;4.90;1.00;;;;;;5116043;28;20679;-87
2022/05/01 03:23:16;;;;;;;10.30;5.67;;;4.90;1.00;;;;;;5115891;28;20631;-86
2022/05/01 03:25:43;;;;;;;9.40;5.60;;;4.90;1.00;;;;;;5115987;28;20198;-87
2022/05/01 03:28:10;;;;;;;8.70;5.57;;;4.90;1.00;;;;;;5115646;28;20204;-86
2022/05/01 03:30:36;;;;;;;9.77;5.60;;;4.90;1.00;;;;;;5116090;28;20629;-86
2022/05/01 03:33:07;;;;;;;8.37;5.60;;;4.80;1.00;;;;;;5115882;28;20282;-87
2022/05/01 03:35:35;;;;;;;8.00;5.40;;;4.80;1.00;;;;;;5115872;28;20238;-86
2022/05/01 03:38:03;;;;;;;8.63;5.63;;;4.80;1.00;;;;;;5115889;28;20284;-87
2022/05/01 03:40:29;;;;;;;11.77;6.10;;;4.80;1.00;;;;;;5115737;28;20187;-87
2022/05/01 03:42:56;;;;;;;9.83;5.53;;;4.70;1.00;;;;;;5115338;28;20643;-86
2022/05/01 03:45:23;;;;;;;11.23;5.90;;;4.80;1.00;;;;;;5115360;28;20188;-87
2022/05/01 03:47:50;;;;;;;11.23;5.57;;;4.80;1.00;;;;;;5115999;28;20280;-87
2022/05/01 03:50:19;;;;;;;9.47;5.73;;;4.80;1.00;;;;;;5115775;28;20193;-88
2022/05/01 03:52:46;;;;;;;8.90;6.13;;;4.90;1.00;;;;;;5115422;28;20219;-85
2022/05/01 03:55:14;;;;;;;7.47;5.60;;;4.90;1.00;;;;;;5114960;28;20694;-86
2022/05/01 03:57:41;;;;;;;9.53;5.93;;;4.90;1.00;;;;;;5115161;28;20606;-87
2022/05/01 04:00:10;;;;;;;10.23;5.97;;;5.00;1.00;;;;;;5114847;28;20658;-87
2022/05/01 04:02:42;;;;;;;9.00;5.90;;;5.00;1.00;;;;;;5115118;28;20562;-86
2022/05/01 04:05:10;;;;;;;9.50;6.30;;;5.10;1.00;;;;;;5115374;28;20194;-85
2022/05/01 04:07:38;;;;;;;10.13;6.03;;;5.10;1.00;;;;;;5115042;28;20231;-87
2022/05/01 04:10:06;;;;;;;9.33;5.83;;;5.20;1.00;;;;;;5114832;28;20235;-86
2022/05/01 04:12:37;;;;;;;15.17;9.57;;;5.30;1.00;;;;;;5115302;28;20190;-87
2022/05/01 04:15:07;;;;;;;11.03;6.00;;;5.40;1.00;;;;;;5114623;28;20665;-87
2022/05/01 04:17:38;;;;;;;9.23;6.10;;;5.50;1.00;;;;;;5114974;28;20265;-86
2022/05/01 04:20:08;;;;;;;10.43;5.53;;;5.60;1.00;;;;;;5114546;28;20237;-88
2022/05/01 04:22:39;;;;;;;9.47;5.77;;;5.70;1.00;;;;;;5115290;28;20270;-87
2022/05/01 04:25:08;;;;;;;8.67;5.87;;;6.00;1.00;;;;;;5114907;28;20213;-88
2022/05/01 04:27:35;;;;;;;11.40;6.00;;;6.60;1.00;;;;;;5114548;28;20240;-87
2022/05/01 04:30:02;;;;;;;9.60;5.60;;;7.10;1.00;;;;;;5114835;28;20303;-87
2022/05/01 04:32:29;;;;;;;9.30;5.47;;;7.40;1.00;;;;;;5114799;28;20278;-87
2022/05/01 04:34:56;;;;;;;7.90;5.37;;;7.50;1.00;;;;;;5114850;28;20272;-88
2022/05/01 04:37:23;;;;;;;7.47;5.10;;;7.70;1.00;;;;;;5114464;28;20721;-86
2022/05/01 04:39:51;;;;;;;8.27;4.67;;;7.90;1.00;;;;;;5115063;28;20194;-88
2022/05/01 04:42:18;;;;;;;7.70;4.73;;;8.20;1.00;;;;;;5114250;28;20195;-88
2022/05/01 04:44:47;;;;;;;6.97;4.50;;;8.60;99.90;;;;;;5114159;28;20233;-88
2022/05/01 04:47:14;;;;;;;6.63;4.50;;;8.90;99.90;;;;;;5114128;28;20198;-87
2022/05/01 04:49:40;;;;;;;7.47;4.60;;;9.20;99.90;;;;;;5114352;28;20644;-87
2022/05/01 04:52:09;;;;;;;9.03;4.70;;;9.30;99.90;;;;;;5114073;28;20191;-88
2022/05/01 04:54:36;;;;;;;8.47;4.80;;;9.40;99.90;;;;;;5114431;28;20190;-87
2022/05/01 04:57:09;;;;;;;7.50;4.70;;;9.50;99.90;;;;;;5113834;28;20579;-87
2022/05/01 04:59:37;;;;;;;7.93;4.60;;;9.60;99.90;;;;;;5113881;28;20270;-87
2022/05/01 05:02:05;;;;;;;6.00;4.57;;;9.60;99.90;;;;;;5114329;28;20172;-86
2022/05/01 05:04:32;;;;;;;6.57;4.43;;;9.50;99.90;;;;;;5113928;28;20187;-88
2022/05/01 05:06:59;;;;;;;9.93;4.60;;;9.50;99.90;;;;;;5113395;28;20611;-86
2022/05/01 05:12:11;;;;;;;8.13;4.23;;;9.50;99.90;;;;;;5113835;28;20252;-85
2022/05/01 05:14:38;;;;;;;8.50;5.00;;;9.70;99.90;;;;;;5114116;28;20221;-86
2022/05/01 05:17:07;;;;;;;11.03;4.50;;;10.10;99.90;;;;;;5112223;28;20210;-87
2022/05/01 05:19:35;;;;;;;11.43;4.50;;;11.00;99.90;;;;;;5113535;28;20215;-87
2022/05/01 05:22:02;;;;;;;6.53;4.50;;;11.90;99.90;;;;;;5113476;28;20198;-85
2022/05/01 05:24:30;;;;;;;6.87;4.17;;;12.80;99.90;;;;;;5113946;28;20191;-87
2022/05/01 05:26:57;;;;;;;6.53;4.50;;;13.20;1.00;;;;;;5113462;27;20274;-85
2022/05/01 05:29:25;;;;;;;5.60;4.30;;;13.80;1.00;;;;;;5112810;28;20310;-86
2022/05/01 05:31:52;;;;;;;7.97;4.60;;;14.40;1.00;;;;;;5113128;28;20282;-84
2022/05/01 05:34:19;;;;;;;7.30;4.20;;;15.10;1.00;;;;;;5112937;28;20613;-85
2022/05/01 05:36:46;;;;;;;6.60;4.15;;;15.50;1.00;;;;;;5112634;28;20248;-85
2022/05/01 05:39:13;;;;;;;6.28;4.22;;;15.50;1.00;;;;;;5113125;28;20235;-87
2022/05/01 05:41:40;;;;;;;6.50;4.60;;;15.20;1.00;;;;;;5113124;28;20199;-85
2022/05/01 05:44:07;;;;;;;6.75;4.50;;;15.20;1.00;;;;;;5112867;28;20224;-86
2022/05/01 05:46:36;;;;;;;7.35;4.38;;;15.30;1.00;;;;;;5112853;28;20232;-84
2022/05/01 05:49:03;;;;;;;6.10;4.40;;;15.60;1.00;;;;;;5112891;28;20251;-85
2022/05/01 05:51:30;;;;;;;8.43;4.57;;;15.80;1.00;;;;;;5112945;28;20229;-84
2022/05/01 05:53:57;;;;;;;5.15;4.43;;;16.00;1.00;;;;;;5108899;28;20183;-85
2022/05/01 05:56:24;;;;;;;6.25;4.25;;;16.60;1.00;;;;;;5109675;28;20687;-86
2022/05/01 05:58:52;;;;;;;7.03;4.63;;;17.10;1.00;;;;;;5112696;28;20281;-85
2022/05/01 06:01:19;;;;;;;9.02;4.78;;;17.70;1.00;;;;;;5112302;28;20248;-85
2022/05/01 06:03:49;;;;;;;7.07;4.22;;;18.20;1.00;;;;;;5111965;28;20945;-86
2022/05/01 06:06:17;;;;;;;6.22;4.68;;;18.70;1.00;;;;;;5112016;28;20179;-84
2022/05/01 06:08:45;;;;;;;6.47;4.10;;;19.20;1.00;;;;;;5111212;28;20209;-87
2022/05/01 06:11:12;;;;;;;5.28;4.28;;;19.70;1.00;;;;;;5112260;28;20240;-86
2022/05/01 06:13:39;;;;;;;6.15;4.38;;;20.40;1.00;;;;;;5112281;28;20211;-84
2022/05/01 06:16:06;;;;;;;6.35;4.25;;;21.00;1.00;;;;;;5111855;28;20643;-85
2022/05/01 06:18:33;;;;;;;6.90;3.97;;;21.30;1.00;;;;;;5110539;28;20187;-85
2022/05/01 06:21:01;;;;;;;5.05;4.13;;;21.60;1.00;;;;;;5111662;28;20616;-85
2022/05/01 06:23:28;;;;;;;5.93;4.43;;;21.90;1.00;;;;;;5112667;28;20289;-87
2022/05/01 06:25:55;;;;;;;11.32;4.45;;;22.00;1.00;;;;;;5112846;28;20226;-86
2022/05/01 06:28:22;;;;;;;5.63;4.30;;;22.10;1.00;;;;;;5112282;28;20195;-85
2022/05/01 06:30:51;;;;;;;5.75;4.35;;;22.40;1.00;;;;;;5112281;28;20247;-85
2022/05/01 06:33:21;;;;;;;5.20;4.03;;;22.70;1.00;;;;;;5112053;28;20619;-85
2022/05/01 06:35:49;;;;;;;6.72;4.47;;;23.20;1.00;;;;;;5112149;28;20236;-85
2022/05/01 06:38:18;;;;;;;4.72;3.83;;;23.70;1.00;;;;;;5112695;28;20274;-85
2022/05/01 06:40:46;;;;;;;6.18;4.30;;;24.30;1.00;;;;;;5111872;28;20219;-86
2022/05/01 06:43:14;;;;;;;5.85;4.10;;;24.80;1.00;;;;;;5112340;28;20232;-86
2022/05/01 06:45:41;;;;;;;8.40;3.72;;;25.30;1.00;;;;;;5115349;28;20710;-86
2022/05/01 06:48:09;;;;;;;9.88;3.97;;;25.60;1.00;;;;;;5116148;28;20643;-86
2022/05/01 06:50:36;;;;;;;7.10;3.67;;;26.00;1.00;;;;;;5116035;28;20708;-87
2022/05/01 06:53:03;;;;;;;5.43;3.67;;;26.30;1.00;;;;;;5114997;28;20187;-85
2022/05/01 06:55:32;;;;;;;5.57;4.07;;;26.60;1.00;;;;;;5116103;28;20191;-90
2022/05/01 06:57:59;;;;;;;5.70;4.05;;;26.80;1.00;;;;;;5115210;28;20236;-85
2022/05/01 07:00:29;;;;;;;7.32;4.28;;;27.10;1.00;;;;;;5115290;28;20191;-91
2022/05/01 07:02:58;;;;;;;6.47;4.40;;;27.40;1.00;;;;;;5115414;28;20195;-85
2022/05/01 07:05:33;;;;;;;5.65;4.28;;;27.50;1.00;;;;;;5115684;28;20591;-90
2022/05/01 07:08:12;;;;;;;;;;;;;;;;;;;;;
2022/05/01 07:10:42;;;;;;;5.72;3.80;;;28.30;1.00;;;;;;5111933;28;20202;-86
2022/05/01 07:13:10;;;;;;;7.07;3.40;;;28.70;1.00;;;;;;5115450;28;20191;-86
2022/05/01 07:15:37;;;;;;;6.75;3.60;;;29.00;1.00;;;;;;5115351;28;20187;-86
2022/05/01 07:18:04;;;;;;;5.85;4.10;;;29.40;1.00;;;;;;5115477;28;20539;-87
2022/05/01 07:20:34;;;;;;;7.80;4.25;;;29.90;1.00;;;;;;5115032;28;20191;-85
2022/05/01 07:23:01;;;;;;;5.10;3.63;;;30.50;1.00;;;;;;5115245;28;20586;-85
2022/05/01 07:25:28;;;;;;;5.45;3.53;;;31.00;1.00;;;;;;5115091;28;20241;-84
2022/05/01 07:27:57;;;;;;;4.53;3.47;;;31.10;1.00;;;;;;5115266;28;20213;-85
2022/05/01 07:30:24;;;;;;;5.50;4.05;;;31.10;1.00;;;;;;5115259;28;20226;-86
2022/05/01 07:32:51;;;;;;;5.82;3.60;;;31.10;1.00;;;;;;5115232;28;20187;-85
2022/05/01 07:35:18;;;;;;;5.78;3.50;;;31.30;1.00;;;;;;5115462;28;20232;-85
2022/05/01 07:37:46;;;;;;;6.47;3.60;;;31.20;1.00;;;;;;5115426;28;20195;-85
2022/05/01 07:40:13;;;;;;;5.28;3.50;;;31.20;1.00;;;;;;5114380;28;20272;-87
2022/05/01 07:42:40;;;;;;;4.28;3.20;;;31.10;1.00;;;;;;5114122;28;20700;-85
2022/05/01 07:45:10;;;;;;;6.30;3.50;;;31.10;1.00;;;;;;5114806;28;20191;-86
2022/05/01 07:47:37;;;;;;;5.13;3.72;;;31.40;1.00;;;;;;5113526;28;20198;-86
2022/05/01 07:50:06;;;;;;;6.63;3.53;;;31.70;1.00;;;;;;5114876;28;20193;-86
2022/05/01 07:52:33;;;;;;;6.63;3.60;;;31.90;1.00;;;;;;5115145;28;20259;-85
2022/05/01 07:55:01;;;;;;;4.40;3.28;;;32.20;1.00;;;;;;5113845;27;20658;-86
2022/05/01 07:57:28;;;;;;;5.63;3.28;;;32.10;1.00;;;;;;5114897;28;20206;-86
2022/05/01 07:59:55;;;;;;;5.60;3.50;;;32.10;1.00;;;;;;5114914;28;20193;-86
2022/05/01 08:02:24;;;;;;;7.05;3.30;;;31.90;1.00;;;;;;5114660;28;20294;-85
2022/05/01 08:04:50;;;;;;;6.60;3.63;;;31.70;1.00;;;;;;5114763;28;20592;-85
2022/05/01 08:07:17;;;;;;;6.68;3.05;;;31.20;1.00;;;;;;5112947;28;20215;-86
2022/05/01 08:09:44;;;;;;;6.05;3.58;;;31.20;1.00;;;;;;5113212;28;20671;-85
2022/05/01 08:12:12;;;;;;;5.88;3.78;;;30.90;1.00;;;;;;5112868;28;20323;-85
2022/05/01 08:14:41;;;;;;;4.75;3.83;;;30.80;1.00;;;;;;5112908;27;20202;-86
2022/05/01 08:17:09;;;;;;;4.78;3.17;;;31.10;1.00;;;;;;5112905;28;20199;-84
2022/05/01 08:22:22;;;;;;;6.38;3.33;;;31.90;1.00;;;;;;5114951;28;20236;-86
2022/05/01 08:24:49;;;;;;;5.60;3.15;;;32.30;1.00;;;;;;5112140;28;20269;-86
2022/05/01 08:27:19;;;;;;;7.20;3.65;;;32.30;1.00;;;;;;5113019;28;20210;-85
2022/05/01 08:29:46;;;;;;;9.20;3.30;;;32.00;1.00;;;;;;5113080;28;20219;-84
2022/05/01 08:32:14;;;;;;;6.63;3.42;;;31.60;1.00;;;;;;5109958;28;20187;-86
2022/05/01 08:34:43;;;;;;;4.72;3.50;;;31.90;1.00;;;;;;5112764;28;20211;-86
2022/05/01 08:37:11;;;;;;;6.85;3.38;;;32.20;1.00;;;;;;5112954;28;20717;-84
2022/05/01 08:39:38;;;;;;;7.35;3.35;;;32.10;1.00;;;;;;5112671;28;20643;-85
2022/05/01 08:42:06;;;;;;;5.15;2.67;;;32.40;1.00;;;;;;5112927;28;20191;-86
2022/05/01 08:44:37;;;;;;;5.15;3.03;;;32.80;1.00;;;;;;5115098;28;20183;-86
2022/05/01 08:47:16;;;;;;;5.57;3.17;;;33.10;1.00;;;;;;5115749;28;20195;-84
2022/05/01 08:49:46;;;;;;;5.43;3.28;;;33.40;1.00;;;;;;5116269;28;20193;-87
2022/05/01 08:52:15;;;;;;;7.47;3.30;;;33.50;1.00;;;;;;5109772;28;20191;-84
2022/05/01 08:54:43;;;;;;;6.05;3.65;;;33.60;1.00;;;;;;5112979;28;20701;-86
2022/05/01 08:57:12;;;;;;;5.65;3.40;;;33.40;1.00;;;;;;5109344;28;20239;-85
2022/05/01 08:59:40;;;;;;;5.57;2.88;;;33.30;1.00;;;;;;5110206;28;20190;-87
2022/05/01 09:02:10;;;;;;;4.30;3.22;;;33.40;1.00;;;;;;5112195;28;20273;-84
2022/05/01 09:04:37;;;;;;;6.40;3.30;;;33.40;1.00;;;;;;5112355;27;20230;-85
2022/05/01 09:07:06;;;;;;;5.57;3.05;;;33.00;1.00;;;;;;5111984;28;20293;-85
2022/05/01 09:09:33;;;;;;;4.57;3.15;;;32.70;1.00;;;;;;5112403;28;20241;-87
2022/05/01 09:14:44;;;;;;;5.07;3.20;;;33.00;1.00;;;;;;5109536;28;20650;-84
2022/05/01 09:17:13;;;;;;;6.80;3.35;;;32.90;1.00;;;;;;5112472;28;20570;-86
2022/05/01 09:19:41;;;;;;;7.93;3.65;;;32.90;1.00;;;;;;5113113;28;20599;-84
2022/05/01 09:22:09;;;;;;;7.40;3.30;;;32.90;1.00;;;;;;5113456;28;20251;-84
2022/05/01 09:24:36;;;;;;;4.53;2.80;;;32.70;1.00;;;;;;5113352;28;20198;-85
2022/05/01 09:27:03;;;;;;;4.90;3.10;;;32.20;1.00;;;;;;5113270;28;20257;-85
2022/05/01 09:29:35;;;;;;;4.22;2.60;;;31.80;1.00;;;;;;5113540;28;20250;-84
2022/05/01 09:32:03;;;;;;;5.63;3.15;;;31.40;1.00;;;;;;5113325;28;20175;-84
2022/05/01 09:34:32;;;;;;;4.75;3.10;;;31.00;1.00;;;;;;5116766;28;20119;-82
2022/05/01 09:37:01;;;;;;;6.90;3.28;;;30.60;1.00;;;;;;5112353;28;20123;-83
2022/05/01 09:39:30;;;;;;;5.93;3.42;;;29.70;1.00;;;;;;5111963;28;20641;-83
2022/05/01 09:42:14;;;;;;;4.63;3.22;;;28.80;1.00;;;;;;5113473;28;20552;-83
2022/05/01 09:44:42;;;;;;;6.15;3.45;;;28.00;1.00;;;;;;5112700;28;20171;-83
2022/05/01 09:47:09;;;;;;;5.28;3.60;;;27.60;1.00;;;;;;5112636;28;20211;-82
2022/05/01 09:49:48;;;;;;;6.85;3.47;;;27.20;1.00;;;;;;5112923;28;20278;-83
2022/05/01 09:52:15;;;;;;;6.80;3.70;;;26.90;1.00;;;;;;5112708;28;20186;-82
2022/05/01 09:55:03;;;;;;;6.03;3.58;;;26.80;1.00;;;;;;5113116;28;20319;-82
2022/05/01 09:57:30;;;;;;;5.82;3.42;;;26.30;1.00;;;;;;5113195;28;20190;-82
2022/05/01 09:59:57;;;;;;;5.55;3.60;;;25.80;1.00;;;;;;5112652;28;20618;-82
2022/05/01 10:02:29;;;;;;;5.43;3.28;;;25.50;1.00;;;;;;5112778;28;20195;-82
2022/05/01 10:05:02;;;;;;;6.07;3.17;;;25.10;1.00;;;;;;5112481;28;20175;-82
2022/05/01 10:07:35;;;;;;;7.78;4.13;;;24.90;1.00;;;;;;5112723;28;20237;-82
2022/05/01 10:10:07;;;;;;;7.68;4.28;;;24.80;1.00;;;;;;5113161;28;20187;-82
2022/05/01 10:12:40;;;;;;;7.05;4.20;;;25.00;1.00;;;;;;5112990;28;20179;-82
2022/05/01 10:15:08;;;;;;;6.93;3.78;;;25.00;1.00;;;;;;5112519;28;25061;-81
2022/05/01 10:17:38;;;;;;;6.10;3.67;;;24.90;1.00;;;;;;5112469;28;20315;-82
2022/05/01 10:20:06;;;;;;;9.15;4.10;;;24.70;1.00;;;;;;5115516;28;20230;-82
2022/05/01 10:22:34;;;;;;;6.68;3.65;;;24.60;1.00;;;;;;5117119;28;20274;-82
2022/05/01 10:25:02;;;;;;;5.57;3.90;;;24.50;1.00;;;;;;5116790;28;20553;-82
2022/05/01 10:27:36;;;;;;;5.47;4.07;;;24.50;1.00;;;;;;5116476;28;20225;-82
2022/05/01 10:33:17;;;;;;;6.38;3.83;;;24.20;1.00;;;;;;5116644;28;20174;-82
2022/05/01 10:36:09;;;;;;;7.55;3.90;;;24.10;1.00;;;;;;5116912;28;20231;-82
2022/05/01 10:38:42;;;;;;;13.00;4.75;;;23.90;1.00;;;;;;5116523;28;20616;-82
2022/05/01 10:41:11;;;;;;;6.63;4.32;;;23.90;1.00;;;;;;5116316;28;20222;-82
2022/05/01 10:43:39;;;;;;;9.70;5.10;;;23.90;1.00;;;;;;5116640;28;20234;-82
2022/05/01 10:46:30;;;;;;;6.90;4.72;;;23.90;1.00;;;;;;5116343;28;20278;-82
2022/05/01 10:49:00;;;;;;;6.30;5.15;;;24.00;1.00;;;;;;5102137;28;20194;-82
2022/05/01 10:51:43;;;;;;;6.50;4.72;;;24.10;1.00;;;;;;5116588;28;20189;-83
2022/05/01 10:54:39;;;;;;;5.35;4.00;;;24.10;1.00;;;;;;5116003;28;20627;-82
2022/05/01 10:57:14;;;;;;;6.65;4.60;;;24.00;1.00;;;;;;5116273;28;20215;-82
2022/05/01 10:59:46;;;;;;;8.15;5.30;;;23.90;1.00;;;;;;5116276;28;20206;-83
2022/05/01 11:02:25;;;;;;;6.45;3.80;;;23.80;1.00;;;;;;5116312;28;20214;-83
2022/05/01 11:04:53;;;;;;;5.55;4.03;;;23.80;1.00;;;;;;5115968;28;20639;-83
2022/05/01 11:07:25;;;;;;;6.10;3.95;;;23.90;1.00;;;;;;5115967;28;20186;-82
2022/05/01 11:09:52;;;;;;;6.32;4.30;;;23.90;1.00;;;;;;5116041;28;20179;-83
2022/05/01 11:12:22;;;;;;;6.65;4.85;;;23.90;1.00;;;;;;5115910;28;20264;-82
2022/05/01 11:14:55;;;;;;;6.50;4.40;;;23.90;1.00;;;;;;5115851;28;20191;-82
2022/05/01 11:17:50;;;;;;;6.53;3.72;;;24.00;1.00;;;;;;5115818;28;20193;-82
2022/05/01 11:20:29;;;;;;;9.10;4.93;;;24.10;1.00;;;;;;5115838;28;20210;-82
2022/05/01 11:22:56;;;;;;;22.10;12.43;;;24.20;1.00;;;;;;5115755;28;20183;-82
2022/05/01 11:25:32;;;;;;;9.23;4.50;;;24.00;1.00;;;;;;5115371;28;20201;-82
2022/05/01 11:28:00;;;;;;;7.10;4.00;;;23.90;1.00;;;;;;5115750;28;20206;-82
2022/05/01 11:30:37;;;;;;;6.05;3.88;;;23.90;1.00;;;;;;5115081;28;20649;-82
2022/05/01 11:33:06;;;;;;;6.78;4.00;;;23.80;1.00;;;;;;5115241;28;20238;-82
2022/05/01 11:36:04;;;;;;;7.55;3.65;;;23.60;1.00;;;;;;5115545;28;20191;-83
2022/05/01 11:38:51;;;;;;;5.38;3.45;;;23.30;1.00;;;;;;5099011;28;20199;-83
2022/05/01 11:41:42;;;;;;;5.40;3.90;;;23.10;1.00;;;;;;5115464;28;20232;-82
2022/05/01 11:44:23;;;;;;;9.43;5.68;;;23.10;1.00;;;;;;5115364;28;20224;-82
2022/05/01 11:46:52;;;;;;;30.35;15.85;;;23.10;1.00;;;;;;5114749;28;20631;-82
2022/05/01 11:49:19;;;;;;;12.02;5.35;;;23.10;1.00;;;;;;5114942;28;20754;-82
2022/05/01 11:51:47;;;;;;;10.80;7.00;;;23.10;1.00;;;;;;5115114;28;20281;-81
2022/05/01 11:54:16;;;;;;;7.68;4.22;;;23.00;1.00;;;;;;5114820;28;20648;-82
2022/05/01 12:02:26;;;;;;;9.95;6.18;;;22.90;1.00;;;;;;5115288;28;20224;-82
2022/05/01 12:04:59;;;;;;;10.80;5.80;;;22.90;1.00;;;;;;5114681;28;20179;-83
2022/05/01 12:07:26;;;;;;;8.65;7.05;;;22.90;1.00;;;;;;5114253;28;20646;-82
2022/05/01 12:09:53;;;;;;;7.80;4.22;;;22.90;1.00;;;;;;5114831;28;20195;-82
2022/05/01 12:12:21;;;;;;;10.35;5.85;;;22.80;1.00;;;;;;5114773;28;20187;-82
2022/05/01 12:14:49;;;;;;;7.82;4.15;;;22.70;1.00;;;;;;5114575;28;20616;-82
2022/05/01 12:17:21;;;;;;;8.45;4.00;;;22.70;1.00;;;;;;5094406;28;20581;-82
2022/05/01 12:19:50;;;;;;;5.28;3.08;;;22.70;1.00;;;;;;5094343;28;20180;-82
2022/05/01 12:22:19;;;;;;;10.75;6.10;;;22.50;1.00;;;;;;5094312;28;20224;-82
2022/05/01 12:24:46;;;;;;;6.30;3.40;;;22.30;1.00;;;;;;5094020;28;20283;-81
2022/05/01 12:27:15;;;;;;;6.75;2.90;;;22.30;1.00;;;;;;5105373;28;20187;-82
2022/05/01 12:29:49;;;;;;;13.60;3.30;;;22.30;1.00;;;;;;5114116;28;20706;-82
2022/05/01 12:32:17;;;;;;;10.90;3.22;;;22.30;1.00;;;;;;5114349;28;20194;-82
2022/05/01 12:34:56;;;;;;;7.30;2.38;;;22.30;1.00;;;;;;5114231;28;20746;-82
2022/05/01 12:37:27;;;;;;;5.28;2.85;;;22.30;1.00;;;;;;5114500;28;20186;-82
2022/05/01 12:39:59;;;;;;;3.83;2.45;;;22.20;1.00;;;;;;5114265;28;20240;-82
2022/05/01 12:45:17;;;;;;;3.80;2.40;;;22.00;1.00;;;;;;5114209;28;20173;-82
2022/05/01 12:47:47;;;;;;;3.50;2.47;;;21.80;1.00;;;;;;5114025;28;20258;-82
2022/05/01 12:50:29;;;;;;;3.17;2.30;;;21.60;1.00;;;;;;5114450;28;20227;-82
2022/05/01 12:53:02;;;;;;;4.20;2.42;;;21.50;1.00;;;;;;5111459;27;20194;-82
2022/05/01 12:55:32;;;;;;;4.10;2.20;;;21.40;1.00;;;;;;5114007;28;20176;-82
2022/05/01 12:58:00;;;;;;;3.40;2.30;;;21.30;1.00;;;;;;5113883;28;20198;-82
2022/05/01 13:00:35;;;;;;;5.72;2.40;;;21.30;1.00;;;;;;5113827;28;20223;-81
2022/05/01 13:03:18;;;;;;;7.82;2.50;;;21.20;1.00;;;;;;5113826;28;20267;-82
2022/05/01 13:06:01;;;;;;;5.65;2.70;;;21.00;1.00;;;;;;5114060;28;20210;-82
2022/05/01 13:08:30;;;;;;;7.03;2.67;;;20.90;1.00;;;;;;5113824;28;20271;-82
2022/05/01 13:11:27;;;;;;;5.72;2.97;;;20.70;1.00;;;;;;5113363;28;20599;-82
2022/05/01 13:13:57;;;;;;;4.07;2.70;;;20.70;1.00;;;;;;5030836;28;20217;-82
2022/05/01 13:16:26;;;;;;;4.22;2.80;;;20.60;1.00;;;;;;5095827;28;20747;-81
2022/05/01 13:18:57;;;;;;;3.22;2.33;;;20.60;1.00;;;;;;5113348;28;20195;-82
2022/05/01 13:21:26;;;;;;;9.88;2.40;;;20.50;1.00;;;;;;5113543;28;20183;-81
2022/05/01 13:23:57;;;;;;;5.35;2.47;;;20.30;1.00;;;;;;5113235;28;20190;-82
2022/05/01 13:26:23;;;;;;;6.70;2.58;;;20.20;1.00;;;;;;5113271;28;20266;-82
2022/05/01 13:28:50;;;;;;;3.80;2.38;;;20.10;1.00;;;;;;5113301;28;20301;-82
2022/05/01 13:31:17;;;;;;;3.67;2.00;;;20.00;1.00;;;;;;5113009;28;20267;-82
2022/05/01 13:33:44;;;;;;;2.83;2.22;;;19.90;1.00;;;;;;5113141;28;20606;-81
2022/05/01 13:36:13;;;;;;;4.00;2.45;;;19.90;1.00;;;;;;5113243;28;20190;-81
2022/05/01 13:38:40;;;;;;;3.03;2.42;;;19.90;1.00;;;;;;5113402;28;20293;-81
2022/05/01 13:46:36;;;;;;;3.63;2.45;;;20.40;1.00;;;;;;5112593;28;20190;-82